Impacts TAF Board
For situational awareness. Not to be used for flight planning purposes.
IDs:

KFLL - Ft Lauderdale-Hollyw, FL, US

Issued at 1126 UTC 10 Aug 2022
Updated at 1455 UTC 10 Aug 2022
Potential Impact None Slight Moderate High
Time1353Z 10/15Z 10/16Z 10/17Z 10/18Z 10/19Z 10/20Z 10/21Z 10/22Z 10/23Z 11/00Z 11/01Z 11/02Z 11/03Z>>
Type OBS PRVL PRVL PRVL PRVL PRVL PRVL PRVL PRVL PRVL PRVL PRVL PRVL PRVL
VIS 10 >6 >6 >6 >6 >6 >6 >6 >6 >6 >6 >6 >6 >6
CIG -- -- -- -- -- -- -- -- -- -- -- -- -- --
Cover FEW SCT SCT SCT SCT SCT SCT SCT SCT SCT SCT SCT SCT SCT
FltCat VFR VFR VFR VFR VFR VFR VFR VFR VFR VFR VFR VFR VFR VFR
WX -- -- -- -- -- -- -- -- -- -- -- -- -- --
WDir 110 120 120 120 110 110 110 110 110 110 100 100 100 100
WSpd 11 10 10 10 15 15 15 15 15 15 7 7 7 7
WGst -- -- -- -- 25 25 25 25 25 25 -- -- -- --
WSHgt -- -- -- -- -- -- -- -- -- -- -- -- -- --
WSDir -- -- -- -- -- -- -- -- -- -- -- -- -- --
WSSpd -- -- -- -- -- -- -- -- -- -- -- -- -- --
Raw TAF
KFLL 101126Z 1012/1118 12010KT P6SM FEW030 SCT050
  FM101800 11015G25KT P6SM FEW030 SCT050
  FM110000 10007KT P6SM FEW025 SCT250
  FM111300 09012KT P6SM SCT030 SCT050


Raw METAR
KFLL 101353Z 11011KT 10SM FEW028 FEW250 31/23 A3017 RMK AO2 SLP217 T03110233
KFLL 101253Z 12011KT 10SM FEW030 FEW250 30/23 A3016 RMK AO2 SLP212 T03000233
KFLL 101153Z 13011KT 10SM FEW025 SCT250 29/23 A3015 RMK AO2 SLP209 T02940233 10294 20283 53017

METAR Board
Radar Display
Forecast Discussion
For situational awareness. Not to be used for flight planning purposes.